Carnarvon, Australia
Current Conditions -  °F | °C
As of 12:00 AM on Friday 31 Oct 2014 (Local Time) from YCAR Reporting Station
Broken Clouds Broken Clouds  
Wind Chill: 68°   Ceiling: 3300
Heat Index: 68°   Visibility: 6mi
Dew Point: 57°   Wind: 21mph
Humidity: 68%   Direction: 180°S
Pressure: 29.97"   Gusts: NA
Location:  24.88°S, 113.66°E
Report Text: YCAR 301600Z AUTO 18018KT 9999 // BKN033 20/14 Q1015
Loading
Personal Weather Stations






























Interactive Weather Map
Tropical Storm Tracking
New forecast layout! Learn more

10-Day Weather Forecast

Advertisements
Track Severe Weather on mobile